Terminal Aerodrome Forecast
Issued by NWS Central Illinois

Home | Current Version | Previous Version | Text Only | Print | Product List | Glossary On
Versions: 1 2 3 4 5 6 7 8 9 10 11 12 13 14 15 16 17 18
000
FTUS43 KILX 201100
TAFPIA
TAF
KPIA 201140Z 2012/2112 13003KT 5SM HZ OVC045
     FM201600 16003KT P6SM SCT015 OVC040
     FM202000 18005KT P6SM BKN020 OVC040
     FM210100 18006KT 6SM HZ BKN012 OVC035=

USA.gov is the U.S. government's official web portal to all federal, state and local government web resources and services.